sensor_id;sensor_type;location;lat;lon;timestamp;temperature;humidity
17859;DHT22;35426;30.698;104.050;2023-05-10T00:02:27;18.80;99.90
17859;DHT22;35426;30.698;104.050;2023-05-10T00:05:06;18.90;99.90
17859;DHT22;35426;30.698;104.050;2023-05-10T00:07:42;19.00;99.90
17859;DHT22;35426;30.698;104.050;2023-05-10T00:10:17;19.10;99.90
17859;DHT22;35426;30.698;104.050;2023-05-10T00:12:54;19.20;99.90
17859;DHT22;35426;30.698;104.050;2023-05-10T00:15:30;19.30;99.90
17859;DHT22;35426;30.698;104.050;2023-05-10T00:18:05;19.50;99.90
17859;DHT22;35426;30.698;104.050;2023-05-10T00:20:41;19.60;99.90
17859;DHT22;35426;30.698;104.050;2023-05-10T00:23:20;19.70;99.90
17859;DHT22;35426;30.698;104.050;2023-05-10T00:25:55;19.90;99.90
17859;DHT22;35426;30.698;104.050;2023-05-10T00:28:35;19.90;99.90
17859;DHT22;35426;30.698;104.050;2023-05-10T00:31:10;20.10;99.90
17859;DHT22;35426;30.698;104.050;2023-05-10T00:33:47;20.20;99.90
17859;DHT22;35426;30.698;104.050;2023-05-10T00:36:22;20.30;99.90
17859;DHT22;35426;30.698;104.050;2023-05-10T00:38:57;20.40;99.90
17859;DHT22;35426;30.698;104.050;2023-05-10T00:41:36;20.80;99.90
17859;DHT22;35426;30.698;104.050;2023-05-10T00:44:13;21.50;99.90
17859;DHT22;35426;30.698;104.050;2023-05-10T00:46:52;22.10;99.90
17859;DHT22;35426;30.698;104.050;2023-05-10T00:49:29;22.40;99.90
17859;DHT22;35426;30.698;104.050;2023-05-10T00:52:12;23.00;99.90
17859;DHT22;35426;30.698;104.050;2023-05-10T00:54:47;23.50;99.90
17859;DHT22;35426;30.698;104.050;2023-05-10T00:57:20;24.10;99.90
17859;DHT22;35426;30.698;104.050;2023-05-10T01:00:06;24.60;99.90
17859;DHT22;35426;30.698;104.050;2023-05-10T01:02:42;24.70;99.90
17859;DHT22;35426;30.698;104.050;2023-05-10T01:05:19;24.40;99.90
17859;DHT22;35426;30.698;104.050;2023-05-10T01:07:56;24.80;99.90
17859;DHT22;35426;30.698;104.050;2023-05-10T01:10:34;25.00;99.90
17859;DHT22;35426;30.698;104.050;2023-05-10T01:13:10;25.10;99.90
17859;DHT22;35426;30.698;104.050;2023-05-10T01:15:45;24.90;99.90
17859;DHT22;35426;30.698;104.050;2023-05-10T01:18:29;23.80;99.90
17859;DHT22;35426;30.698;104.050;2023-05-10T01:21:14;23.40;99.90
17859;DHT22;35426;30.698;104.050;2023-05-10T01:33:48;25.30;99.90
17859;DHT22;35426;30.698;104.050;2023-05-10T01:36:31;25.10;99.90
17859;DHT22;35426;30.698;104.050;2023-05-10T01:39:15;24.10;99.90
17859;DHT22;35426;30.698;104.050;2023-05-10T01:41:59;24.00;99.90
17859;DHT22;35426;30.698;104.050;2023-05-10T01:44:48;24.00;99.90
17859;DHT22;35426;30.698;104.050;2023-05-10T01:47:27;23.70;99.90
17859;DHT22;35426;30.698;104.050;2023-05-10T01:50:15;23.00;99.90
17859;DHT22;35426;30.698;104.050;2023-05-10T01:52:56;22.70;99.90
17859;DHT22;35426;30.698;104.050;2023-05-10T01:55:35;23.30;99.90
17859;DHT22;35426;30.698;104.050;2023-05-10T01:58:15;23.50;99.90
17859;DHT22;35426;30.698;104.050;2023-05-10T02:00:53;23.60;99.90
17859;DHT22;35426;30.698;104.050;2023-05-10T02:03:28;23.50;99.90
17859;DHT22;35426;30.698;104.050;2023-05-10T02:06:10;23.50;99.90
17859;DHT22;35426;30.698;104.050;2023-05-10T02:08:46;24.10;99.90
17859;DHT22;35426;30.698;104.050;2023-05-10T02:11:24;24.90;99.90
17859;DHT22;35426;30.698;104.050;2023-05-10T02:14:03;24.80;99.90
17859;DHT22;35426;30.698;104.050;2023-05-10T02:16:44;24.90;99.90
17859;DHT22;35426;30.698;104.050;2023-05-10T02:19:23;25.10;99.90
17859;DHT22;35426;30.698;104.050;2023-05-10T02:22:01;24.80;99.90
17859;DHT22;35426;30.698;104.050;2023-05-10T02:24:37;24.10;99.90
17859;DHT22;35426;30.698;104.050;2023-05-10T02:27:14;24.90;99.90
17859;DHT22;35426;30.698;104.050;2023-05-10T02:29:52;24.70;99.90
17859;DHT22;35426;30.698;104.050;2023-05-10T02:32:29;25.30;99.90
17859;DHT22;35426;30.698;104.050;2023-05-10T02:35:09;25.20;99.90
17859;DHT22;35426;30.698;104.050;2023-05-10T02:37:50;25.70;99.90
17859;DHT22;35426;30.698;104.050;2023-05-10T02:40:27;25.20;99.90
17859;DHT22;35426;30.698;104.050;2023-05-10T02:43:04;24.20;99.90
17859;DHT22;35426;30.698;104.050;2023-05-10T02:45:43;23.70;99.90
17859;DHT22;35426;30.698;104.050;2023-05-10T02:48:24;23.20;99.90
17859;DHT22;35426;30.698;104.050;2023-05-10T02:51:08;23.50;99.90
17859;DHT22;35426;30.698;104.050;2023-05-10T02:53:48;24.00;99.90
17859;DHT22;35426;30.698;104.050;2023-05-10T02:56:25;24.20;99.90
17859;DHT22;35426;30.698;104.050;2023-05-10T02:59:02;24.10;99.90
17859;DHT22;35426;30.698;104.050;2023-05-10T03:01:41;24.20;99.90
17859;DHT22;35426;30.698;104.050;2023-05-10T03:04:17;24.50;99.90
17859;DHT22;35426;30.698;104.050;2023-05-10T03:07:03;24.40;99.90
17859;DHT22;35426;30.698;104.050;2023-05-10T03:09:40;24.60;99.90
17859;DHT22;35426;30.698;104.050;2023-05-10T03:12:23;24.50;99.90
17859;DHT22;35426;30.698;104.050;2023-05-10T03:15:10;25.40;99.90
17859;DHT22;35426;30.698;104.050;2023-05-10T03:17:48;25.10;99.90
17859;DHT22;35426;30.698;104.050;2023-05-10T03:20:33;25.20;99.90
17859;DHT22;35426;30.698;104.050;2023-05-10T03:23:22;25.10;99.90
17859;DHT22;35426;30.698;104.050;2023-05-10T03:26:01;25.30;99.90
17859;DHT22;35426;30.698;104.050;2023-05-10T03:28:42;25.60;99.90
17859;DHT22;35426;30.698;104.050;2023-05-10T03:31:19;25.80;99.90
17859;DHT22;35426;30.698;104.050;2023-05-10T03:33:55;25.40;99.90
17859;DHT22;35426;30.698;104.050;2023-05-10T03:36:29;24.10;99.90
17859;DHT22;35426;30.698;104.050;2023-05-10T03:39:08;24.20;99.90
17859;DHT22;35426;30.698;104.050;2023-05-10T03:41:43;24.10;99.90
17859;DHT22;35426;30.698;104.050;2023-05-10T03:44:18;24.70;99.90
17859;DHT22;35426;30.698;104.050;2023-05-10T03:46:52;25.30;99.90
17859;DHT22;35426;30.698;104.050;2023-05-10T03:49:28;25.10;99.90
17859;DHT22;35426;30.698;104.050;2023-05-10T03:52:05;25.10;99.90
17859;DHT22;35426;30.698;104.050;2023-05-10T03:54:42;25.20;99.90
17859;DHT22;35426;30.698;104.050;2023-05-10T03:57:20;25.40;99.90
17859;DHT22;35426;30.698;104.050;2023-05-10T03:59:55;25.70;99.90
17859;DHT22;35426;30.698;104.050;2023-05-10T04:02:41;25.70;99.90
17859;DHT22;35426;30.698;104.050;2023-05-10T04:05:20;25.30;99.90
17859;DHT22;35426;30.698;104.050;2023-05-10T04:08:08;25.20;99.90
17859;DHT22;35426;30.698;104.050;2023-05-10T04:10:42;25.10;99.90
17859;DHT22;35426;30.698;104.050;2023-05-10T04:13:34;25.00;99.90
17859;DHT22;35426;30.698;104.050;2023-05-10T04:16:31;25.20;99.90
17859;DHT22;35426;30.698;104.050;2023-05-10T04:19:16;25.40;99.90
17859;DHT22;35426;30.698;104.050;2023-05-10T04:21:56;24.90;99.90
17859;DHT22;35426;30.698;104.050;2023-05-10T04:24:29;25.00;99.90
17859;DHT22;35426;30.698;104.050;2023-05-10T04:27:16;25.20;99.90
17859;DHT22;35426;30.698;104.050;2023-05-10T04:29:52;25.70;99.90
17859;DHT22;35426;30.698;104.050;2023-05-10T04:32:29;26.30;99.90
17859;DHT22;35426;30.698;104.050;2023-05-10T04:35:05;26.60;99.90
17859;DHT22;35426;30.698;104.050;2023-05-10T04:37:46;26.50;99.90
17859;DHT22;35426;30.698;104.050;2023-05-10T04:40:36;26.50;99.90
17859;DHT22;35426;30.698;104.050;2023-05-10T04:43:18;26.60;99.90
17859;DHT22;35426;30.698;104.050;2023-05-10T04:46:00;25.80;99.90
17859;DHT22;35426;30.698;104.050;2023-05-10T04:48:42;26.00;99.90
17859;DHT22;35426;30.698;104.050;2023-05-10T04:51:21;26.30;99.90
17859;DHT22;35426;30.698;104.050;2023-05-10T04:53:56;26.10;99.90
17859;DHT22;35426;30.698;104.050;2023-05-10T04:56:36;26.00;99.90
17859;DHT22;35426;30.698;104.050;2023-05-10T04:59:14;25.70;99.90
17859;DHT22;35426;30.698;104.050;2023-05-10T05:02:05;25.70;99.90
17859;DHT22;35426;30.698;104.050;2023-05-10T05:04:41;26.10;99.90
17859;DHT22;35426;30.698;104.050;2023-05-10T05:07:16;26.20;99.90
17859;DHT22;35426;30.698;104.050;2023-05-10T05:09:52;26.00;99.90
17859;DHT22;35426;30.698;104.050;2023-05-10T05:12:28;26.10;99.90
17859;DHT22;35426;30.698;104.050;2023-05-10T05:15:06;26.40;99.90
17859;DHT22;35426;30.698;104.050;2023-05-10T05:17:54;26.30;99.90
17859;DHT22;35426;30.698;104.050;2023-05-10T05:20:32;26.40;99.90
17859;DHT22;35426;30.698;104.050;2023-05-10T05:23:14;26.20;99.90
17859;DHT22;35426;30.698;104.050;2023-05-10T05:25:51;25.50;99.90
17859;DHT22;35426;30.698;104.050;2023-05-10T05:28:27;25.60;99.90
17859;DHT22;35426;30.698;104.050;2023-05-10T05:31:12;25.40;99.90
17859;DHT22;35426;30.698;104.050;2023-05-10T05:33:49;25.30;99.90
17859;DHT22;35426;30.698;104.050;2023-05-10T05:36:23;25.30;99.90
17859;DHT22;35426;30.698;104.050;2023-05-10T05:39:02;25.30;99.90
17859;DHT22;35426;30.698;104.050;2023-05-10T05:41:44;25.40;99.90
17859;DHT22;35426;30.698;104.050;2023-05-10T05:44:19;25.60;99.90
17859;DHT22;35426;30.698;104.050;2023-05-10T05:46:53;25.90;99.90
17859;DHT22;35426;30.698;104.050;2023-05-10T05:49:34;25.90;99.90
17859;DHT22;35426;30.698;104.050;2023-05-10T05:52:07;26.00;99.90
17859;DHT22;35426;30.698;104.050;2023-05-10T05:54:45;26.30;99.90
17859;DHT22;35426;30.698;104.050;2023-05-10T05:57:29;26.30;99.90
17859;DHT22;35426;30.698;104.050;2023-05-10T06:00:09;26.40;99.90
17859;DHT22;35426;30.698;104.050;2023-05-10T06:02:47;26.50;99.90
17859;DHT22;35426;30.698;104.050;2023-05-10T06:05:28;26.70;99.90
17859;DHT22;35426;30.698;104.050;2023-05-10T06:08:02;26.60;99.90
17859;DHT22;35426;30.698;104.050;2023-05-10T06:10:39;26.70;99.90
17859;DHT22;35426;30.698;104.050;2023-05-10T06:13:18;26.70;99.90
17859;DHT22;35426;30.698;104.050;2023-05-10T06:15:53;26.70;99.90
17859;DHT22;35426;30.698;104.050;2023-05-10T06:18:32;26.50;99.90
17859;DHT22;35426;30.698;104.050;2023-05-10T06:21:08;25.60;99.90
17859;DHT22;35426;30.698;104.050;2023-05-10T06:23:43;25.50;99.90
17859;DHT22;35426;30.698;104.050;2023-05-10T06:26:17;25.40;99.90
17859;DHT22;35426;30.698;104.050;2023-05-10T06:28:54;25.30;99.90
17859;DHT22;35426;30.698;104.050;2023-05-10T06:31:29;25.10;99.90
17859;DHT22;35426;30.698;104.050;2023-05-10T06:34:04;24.70;99.90
17859;DHT22;35426;30.698;104.050;2023-05-10T06:36:49;24.40;99.90
17859;DHT22;35426;30.698;104.050;2023-05-10T06:39:24;23.90;99.90
17859;DHT22;35426;30.698;104.050;2023-05-10T06:41:59;24.30;99.90
17859;DHT22;35426;30.698;104.050;2023-05-10T06:44:36;24.50;99.90
17859;DHT22;35426;30.698;104.050;2023-05-10T06:47:09;24.60;99.90
17859;DHT22;35426;30.698;104.050;2023-05-10T06:49:51;24.80;99.90
17859;DHT22;35426;30.698;104.050;2023-05-10T06:52:28;24.80;99.90
17859;DHT22;35426;30.698;104.050;2023-05-10T06:55:01;24.80;99.90
17859;DHT22;35426;30.698;104.050;2023-05-10T06:57:36;24.80;99.90
17859;DHT22;35426;30.698;104.050;2023-05-10T07:00:16;24.80;99.90
17859;DHT22;35426;30.698;104.050;2023-05-10T07:02:52;24.90;99.90
17859;DHT22;35426;30.698;104.050;2023-05-10T07:05:29;25.00;99.90
17859;DHT22;35426;30.698;104.050;2023-05-10T07:08:07;24.80;99.90
17859;DHT22;35426;30.698;104.050;2023-05-10T07:10:44;24.60;99.90
17859;DHT22;35426;30.698;104.050;2023-05-10T07:13:18;24.70;99.90
17859;DHT22;35426;30.698;104.050;2023-05-10T07:15:56;24.60;99.90
17859;DHT22;35426;30.698;104.050;2023-05-10T07:18:36;24.60;99.90
17859;DHT22;35426;30.698;104.050;2023-05-10T07:21:14;24.50;99.90
17859;DHT22;35426;30.698;104.050;2023-05-10T07:23:52;24.80;99.90
17859;DHT22;35426;30.698;104.050;2023-05-10T07:26:27;24.40;99.90
17859;DHT22;35426;30.698;104.050;2023-05-10T07:29:04;24.30;99.90
17859;DHT22;35426;30.698;104.050;2023-05-10T07:31:44;24.50;99.90
17859;DHT22;35426;30.698;104.050;2023-05-10T07:34:19;24.80;99.90
17859;DHT22;35426;30.698;104.050;2023-05-10T07:36:53;25.10;99.90
17859;DHT22;35426;30.698;104.050;2023-05-10T07:39:31;25.10;99.90
17859;DHT22;35426;30.698;104.050;2023-05-10T07:42:14;24.90;99.90
17859;DHT22;35426;30.698;104.050;2023-05-10T07:44:48;24.80;99.90
17859;DHT22;35426;30.698;104.050;2023-05-10T07:47:27;24.90;99.90
17859;DHT22;35426;30.698;104.050;2023-05-10T07:50:08;25.10;99.90
17859;DHT22;35426;30.698;104.050;2023-05-10T07:52:56;25.50;99.90
17859;DHT22;35426;30.698;104.050;2023-05-10T07:55:34;25.60;99.90
17859;DHT22;35426;30.698;104.050;2023-05-10T07:58:09;25.50;99.90
17859;DHT22;35426;30.698;104.050;2023-05-10T08:00:48;25.30;99.90
17859;DHT22;35426;30.698;104.050;2023-05-10T08:03:25;25.20;99.90
17859;DHT22;35426;30.698;104.050;2023-05-10T08:06:05;25.10;99.90
17859;DHT22;35426;30.698;104.050;2023-05-10T08:08:40;24.90;99.90
17859;DHT22;35426;30.698;104.050;2023-05-10T08:11:16;24.70;99.90
17859;DHT22;35426;30.698;104.050;2023-05-10T08:13:58;24.60;99.90
17859;DHT22;35426;30.698;104.050;2023-05-10T08:16:35;24.20;99.90
17859;DHT22;35426;30.698;104.050;2023-05-10T08:19:10;23.60;99.90
17859;DHT22;35426;30.698;104.050;2023-05-10T08:21:47;23.20;99.90
17859;DHT22;35426;30.698;104.050;2023-05-10T08:24:22;23.10;99.90
17859;DHT22;35426;30.698;104.050;2023-05-10T08:27:04;23.00;99.90
17859;DHT22;35426;30.698;104.050;2023-05-10T08:29:39;22.80;99.90
17859;DHT22;35426;30.698;104.050;2023-05-10T08:32:20;22.70;99.90
17859;DHT22;35426;30.698;104.050;2023-05-10T08:34:56;22.80;99.90
17859;DHT22;35426;30.698;104.050;2023-05-10T08:37:36;23.00;99.90
17859;DHT22;35426;30.698;104.050;2023-05-10T08:40:13;23.00;99.90
17859;DHT22;35426;30.698;104.050;2023-05-10T08:42:55;23.20;99.90
17859;DHT22;35426;30.698;104.050;2023-05-10T08:45:33;23.20;99.90
17859;DHT22;35426;30.698;104.050;2023-05-10T08:48:15;23.10;99.90
17859;DHT22;35426;30.698;104.050;2023-05-10T08:50:52;23.10;99.90
17859;DHT22;35426;30.698;104.050;2023-05-10T08:53:27;23.10;99.90
17859;DHT22;35426;30.698;104.050;2023-05-10T08:56:08;23.00;99.90
17859;DHT22;35426;30.698;104.050;2023-05-10T08:58:45;23.00;99.90
17859;DHT22;35426;30.698;104.050;2023-05-10T09:01:22;23.10;99.90
17859;DHT22;35426;30.698;104.050;2023-05-10T09:04:00;23.00;99.90
17859;DHT22;35426;30.698;104.050;2023-05-10T09:06:37;22.90;99.90
17859;DHT22;35426;30.698;104.050;2023-05-10T09:09:17;22.90;99.90
17859;DHT22;35426;30.698;104.050;2023-05-10T09:11:54;22.70;99.90
17859;DHT22;35426;30.698;104.050;2023-05-10T09:14:30;22.70;99.90
17859;DHT22;35426;30.698;104.050;2023-05-10T09:17:05;22.70;99.90
17859;DHT22;35426;30.698;104.050;2023-05-10T09:19:42;22.80;99.90
17859;DHT22;35426;30.698;104.050;2023-05-10T09:22:21;22.90;99.90
17859;DHT22;35426;30.698;104.050;2023-05-10T09:25:06;22.90;99.90
17859;DHT22;35426;30.698;104.050;2023-05-10T09:27:43;22.90;99.90
17859;DHT22;35426;30.698;104.050;2023-05-10T09:30:24;22.50;99.90
17859;DHT22;35426;30.698;104.050;2023-05-10T09:32:59;22.60;99.90
17859;DHT22;35426;30.698;104.050;2023-05-10T09:35:38;22.70;99.90
17859;DHT22;35426;30.698;104.050;2023-05-10T09:38:14;22.70;99.90
17859;DHT22;35426;30.698;104.050;2023-05-10T09:40:52;22.80;99.90
17859;DHT22;35426;30.698;104.050;2023-05-10T09:43:38;22.80;99.90
17859;DHT22;35426;30.698;104.050;2023-05-10T09:46:15;22.90;99.90
17859;DHT22;35426;30.698;104.050;2023-05-10T09:48:51;22.90;99.90
17859;DHT22;35426;30.698;104.050;2023-05-10T09:51:28;22.90;99.90
17859;DHT22;35426;30.698;104.050;2023-05-10T09:54:13;22.90;99.90
17859;DHT22;35426;30.698;104.050;2023-05-10T09:56:52;22.80;99.90
17859;DHT22;35426;30.698;104.050;2023-05-10T09:59:28;22.80;99.90
17859;DHT22;35426;30.698;104.050;2023-05-10T10:02:03;22.60;99.90
17859;DHT22;35426;30.698;104.050;2023-05-10T10:04:43;22.70;99.90
17859;DHT22;35426;30.698;104.050;2023-05-10T10:07:24;22.70;99.90
17859;DHT22;35426;30.698;104.050;2023-05-10T10:10:04;22.60;99.90
17859;DHT22;35426;30.698;104.050;2023-05-10T10:12:43;22.60;99.90
17859;DHT22;35426;30.698;104.050;2023-05-10T10:15:20;22.70;99.90
17859;DHT22;35426;30.698;104.050;2023-05-10T10:17:57;22.70;99.90
17859;DHT22;35426;30.698;104.050;2023-05-10T10:20:32;22.60;99.90
17859;DHT22;35426;30.698;104.050;2023-05-10T10:23:08;22.50;99.90
17859;DHT22;35426;30.698;104.050;2023-05-10T10:25:46;22.50;99.90
17859;DHT22;35426;30.698;104.050;2023-05-10T10:28:34;22.40;99.90
17859;DHT22;35426;30.698;104.050;2023-05-10T10:31:23;22.40;99.90
17859;DHT22;35426;30.698;104.050;2023-05-10T10:34:16;22.40;99.90
17859;DHT22;35426;30.698;104.050;2023-05-10T10:36:55;22.40;99.90
17859;DHT22;35426;30.698;104.050;2023-05-10T10:39:34;22.30;99.90
17859;DHT22;35426;30.698;104.050;2023-05-10T10:42:14;22.30;99.90
17859;DHT22;35426;30.698;104.050;2023-05-10T10:45:15;22.40;99.90
17859;DHT22;35426;30.698;104.050;2023-05-10T10:48:24;22.30;99.90
17859;DHT22;35426;30.698;104.050;2023-05-10T10:51:02;22.10;99.90
17859;DHT22;35426;30.698;104.050;2023-05-10T10:53:39;22.20;99.90
17859;DHT22;35426;30.698;104.050;2023-05-10T10:56:23;22.30;99.90
17859;DHT22;35426;30.698;104.050;2023-05-10T10:59:01;22.20;99.90
17859;DHT22;35426;30.698;104.050;2023-05-10T11:01:43;22.20;99.90
17859;DHT22;35426;30.698;104.050;2023-05-10T11:04:21;22.10;99.90
17859;DHT22;35426;30.698;104.050;2023-05-10T11:07:18;21.90;99.90
17859;DHT22;35426;30.698;104.050;2023-05-10T11:09:56;21.90;99.90
17859;DHT22;35426;30.698;104.050;2023-05-10T11:12:53;21.80;99.90
17859;DHT22;35426;30.698;104.050;2023-05-10T11:15:39;21.80;99.90
17859;DHT22;35426;30.698;104.050;2023-05-10T11:18:20;21.80;99.90
17859;DHT22;35426;30.698;104.050;2023-05-10T11:21:00;21.60;99.90
17859;DHT22;35426;30.698;104.050;2023-05-10T11:23:53;21.60;99.90
17859;DHT22;35426;30.698;104.050;2023-05-10T11:26:33;21.50;99.90
17859;DHT22;35426;30.698;104.050;2023-05-10T11:29:08;21.30;99.90
17859;DHT22;35426;30.698;104.050;2023-05-10T11:31:47;21.10;99.90
17859;DHT22;35426;30.698;104.050;2023-05-10T11:34:26;21.00;99.90
17859;DHT22;35426;30.698;104.050;2023-05-10T11:37:02;20.70;99.90
17859;DHT22;35426;30.698;104.050;2023-05-10T11:39:47;20.30;99.90
17859;DHT22;35426;30.698;104.050;2023-05-10T11:42:31;20.50;99.90
17859;DHT22;35426;30.698;104.050;2023-05-10T11:45:06;20.40;99.90
17859;DHT22;35426;30.698;104.050;2023-05-10T11:47:43;20.50;99.90
17859;DHT22;35426;30.698;104.050;2023-05-10T11:50:21;20.40;99.90
17859;DHT22;35426;30.698;104.050;2023-05-10T11:52:58;20.20;99.90
17859;DHT22;35426;30.698;104.050;2023-05-10T11:55:40;20.20;99.90
17859;DHT22;35426;30.698;104.050;2023-05-10T11:58:18;20.40;99.90
17859;DHT22;35426;30.698;104.050;2023-05-10T12:00:58;20.30;99.90
17859;DHT22;35426;30.698;104.050;2023-05-10T12:03:34;20.10;99.90
17859;DHT22;35426;30.698;104.050;2023-05-10T12:06:09;20.30;99.90
17859;DHT22;35426;30.698;104.050;2023-05-10T12:08:47;20.30;99.90
17859;DHT22;35426;30.698;104.050;2023-05-10T12:11:26;20.40;99.90
17859;DHT22;35426;30.698;104.050;2023-05-10T12:14:05;20.40;99.90
17859;DHT22;35426;30.698;104.050;2023-05-10T12:16:44;20.30;99.90
17859;DHT22;35426;30.698;104.050;2023-05-10T12:19:25;20.20;99.90
17859;DHT22;35426;30.698;104.050;2023-05-10T12:21:58;19.80;99.90
17859;DHT22;35426;30.698;104.050;2023-05-10T12:24:47;20.00;99.90
17859;DHT22;35426;30.698;104.050;2023-05-10T12:27:32;20.10;99.90
17859;DHT22;35426;30.698;104.050;2023-05-10T12:30:10;19.70;99.90
17859;DHT22;35426;30.698;104.050;2023-05-10T12:32:46;19.50;99.90
17859;DHT22;35426;30.698;104.050;2023-05-10T12:35:21;19.60;99.90
17859;DHT22;35426;30.698;104.050;2023-05-10T12:37:54;19.70;99.90
17859;DHT22;35426;30.698;104.050;2023-05-10T12:40:30;19.60;99.90
17859;DHT22;35426;30.698;104.050;2023-05-10T12:43:06;19.60;99.90
17859;DHT22;35426;30.698;104.050;2023-05-10T12:45:41;19.50;99.90
17859;DHT22;35426;30.698;104.050;2023-05-10T12:48:19;19.30;99.90
17859;DHT22;35426;30.698;104.050;2023-05-10T12:50:57;19.00;99.90
17859;DHT22;35426;30.698;104.050;2023-05-10T12:53:33;19.20;99.90
17859;DHT22;35426;30.698;104.050;2023-05-10T12:56:10;19.50;99.90
17859;DHT22;35426;30.698;104.050;2023-05-10T12:58:50;19.50;99.90
17859;DHT22;35426;30.698;104.050;2023-05-10T13:01:27;19.50;99.90
17859;DHT22;35426;30.698;104.050;2023-05-10T13:04:04;19.50;99.90
17859;DHT22;35426;30.698;104.050;2023-05-10T13:06:39;19.50;99.90
17859;DHT22;35426;30.698;104.050;2023-05-10T13:09:23;19.50;99.90
17859;DHT22;35426;30.698;104.050;2023-05-10T13:11:58;19.60;99.90
17859;DHT22;35426;30.698;104.050;2023-05-10T13:14:35;19.50;99.90
17859;DHT22;35426;30.698;104.050;2023-05-10T13:17:11;19.50;99.90
17859;DHT22;35426;30.698;104.050;2023-05-10T13:19:49;19.50;99.90
17859;DHT22;35426;30.698;104.050;2023-05-10T13:22:29;19.50;99.90
17859;DHT22;35426;30.698;104.050;2023-05-10T13:25:12;19.50;99.90
17859;DHT22;35426;30.698;104.050;2023-05-10T13:27:48;19.30;99.90
17859;DHT22;35426;30.698;104.050;2023-05-10T13:30:31;19.50;99.90
17859;DHT22;35426;30.698;104.050;2023-05-10T13:33:06;19.40;99.90
17859;DHT22;35426;30.698;104.050;2023-05-10T13:35:43;19.40;99.90
17859;DHT22;35426;30.698;104.050;2023-05-10T13:38:19;19.50;99.90
17859;DHT22;35426;30.698;104.050;2023-05-10T13:40:57;19.50;99.90
17859;DHT22;35426;30.698;104.050;2023-05-10T13:43:34;19.50;99.90
17859;DHT22;35426;30.698;104.050;2023-05-10T13:46:11;19.50;99.90
17859;DHT22;35426;30.698;104.050;2023-05-10T13:48:50;19.50;99.90
17859;DHT22;35426;30.698;104.050;2023-05-10T13:51:28;19.20;99.90
17859;DHT22;35426;30.698;104.050;2023-05-10T13:54:09;18.90;99.90
17859;DHT22;35426;30.698;104.050;2023-05-10T13:56:44;18.80;99.90
17859;DHT22;35426;30.698;104.050;2023-05-10T13:59:25;18.90;99.90
17859;DHT22;35426;30.698;104.050;2023-05-10T14:02:06;18.80;99.90
17859;DHT22;35426;30.698;104.050;2023-05-10T14:04:44;18.80;99.90
17859;DHT22;35426;30.698;104.050;2023-05-10T14:07:20;18.80;99.90
17859;DHT22;35426;30.698;104.050;2023-05-10T14:09:57;18.70;99.90
17859;DHT22;35426;30.698;104.050;2023-05-10T14:12:38;18.60;99.90
17859;DHT22;35426;30.698;104.050;2023-05-10T14:15:12;18.70;99.90
17859;DHT22;35426;30.698;104.050;2023-05-10T14:17:50;18.90;99.90
17859;DHT22;35426;30.698;104.050;2023-05-10T14:20:26;19.00;99.90
17859;DHT22;35426;30.698;104.050;2023-05-10T14:23:05;19.10;99.90
17859;DHT22;35426;30.698;104.050;2023-05-10T14:25:41;19.00;99.90
17859;DHT22;35426;30.698;104.050;2023-05-10T14:28:19;19.20;99.90
17859;DHT22;35426;30.698;104.050;2023-05-10T14:31:00;19.10;99.90
17859;DHT22;35426;30.698;104.050;2023-05-10T14:33:36;19.00;99.90
17859;DHT22;35426;30.698;104.050;2023-05-10T14:36:10;19.00;99.90
17859;DHT22;35426;30.698;104.050;2023-05-10T14:38:53;19.10;99.90
17859;DHT22;35426;30.698;104.050;2023-05-10T14:41:41;19.00;99.90
17859;DHT22;35426;30.698;104.050;2023-05-10T14:44:15;19.00;99.90
17859;DHT22;35426;30.698;104.050;2023-05-10T14:46:49;19.20;99.90
17859;DHT22;35426;30.698;104.050;2023-05-10T14:49:30;19.20;99.90
17859;DHT22;35426;30.698;104.050;2023-05-10T14:52:10;19.10;99.90
17859;DHT22;35426;30.698;104.050;2023-05-10T14:54:46;19.00;99.90
17859;DHT22;35426;30.698;104.050;2023-05-10T14:57:20;19.10;99.90
17859;DHT22;35426;30.698;104.050;2023-05-10T14:59:57;19.20;99.90
17859;DHT22;35426;30.698;104.050;2023-05-10T15:02:32;19.10;99.90
17859;DHT22;35426;30.698;104.050;2023-05-10T15:05:20;19.00;99.90
17859;DHT22;35426;30.698;104.050;2023-05-10T15:07:55;19.10;99.90
17859;DHT22;35426;30.698;104.050;2023-05-10T15:10:35;19.10;99.90
17859;DHT22;35426;30.698;104.050;2023-05-10T15:13:24;19.00;99.90
17859;DHT22;35426;30.698;104.050;2023-05-10T15:16:01;19.10;99.90
17859;DHT22;35426;30.698;104.050;2023-05-10T15:18:42;19.10;99.90
17859;DHT22;35426;30.698;104.050;2023-05-10T15:21:19;19.10;99.90
17859;DHT22;35426;30.698;104.050;2023-05-10T15:24:10;18.70;99.90
17859;DHT22;35426;30.698;104.050;2023-05-10T15:26:45;18.70;99.90
17859;DHT22;35426;30.698;104.050;2023-05-10T15:29:22;18.90;99.90
17859;DHT22;35426;30.698;104.050;2023-05-10T15:31:56;19.00;99.90
17859;DHT22;35426;30.698;104.050;2023-05-10T15:34:32;18.90;99.90
17859;DHT22;35426;30.698;104.050;2023-05-10T15:37:12;19.00;99.90
17859;DHT22;35426;30.698;104.050;2023-05-10T15:40:01;19.00;99.90
17859;DHT22;35426;30.698;104.050;2023-05-10T15:42:37;18.80;99.90
17859;DHT22;35426;30.698;104.050;2023-05-10T15:45:15;19.00;99.90
17859;DHT22;35426;30.698;104.050;2023-05-10T15:47:49;18.90;99.90
17859;DHT22;35426;30.698;104.050;2023-05-10T15:50:40;19.00;99.90
17859;DHT22;35426;30.698;104.050;2023-05-10T15:53:17;19.00;99.90
17859;DHT22;35426;30.698;104.050;2023-05-10T15:55:50;18.90;99.90
17859;DHT22;35426;30.698;104.050;2023-05-10T15:58:26;18.90;99.90
17859;DHT22;35426;30.698;104.050;2023-05-10T16:00:59;18.80;99.90
17859;DHT22;35426;30.698;104.050;2023-05-10T16:03:38;18.80;99.90
17859;DHT22;35426;30.698;104.050;2023-05-10T16:06:13;18.80;99.90
17859;DHT22;35426;30.698;104.050;2023-05-10T16:09:06;18.90;99.90
17859;DHT22;35426;30.698;104.050;2023-05-10T16:11:47;18.90;99.90
17859;DHT22;35426;30.698;104.050;2023-05-10T16:14:24;18.90;99.90
17859;DHT22;35426;30.698;104.050;2023-05-10T16:16:58;19.00;99.90
17859;DHT22;35426;30.698;104.050;2023-05-10T16:19:34;19.00;99.90
17859;DHT22;35426;30.698;104.050;2023-05-10T16:22:11;18.90;99.90
17859;DHT22;35426;30.698;104.050;2023-05-10T16:24:55;18.90;99.90